createdAt,value
2022-08-21T00:00:01.552Z,22.56
2022-08-21T00:02:30.428Z,22.60
2022-08-21T00:04:58.490Z,22.61
2022-08-21T00:07:27.904Z,22.63
2022-08-21T00:09:56.088Z,22.65
2022-08-21T00:12:24.055Z,22.64
2022-08-21T00:14:52.328Z,22.60
2022-08-21T00:17:25.236Z,22.61
2022-08-21T00:19:53.271Z,22.66
2022-08-21T00:22:21.315Z,22.67
2022-08-21T00:24:50.824Z,22.66
2022-08-21T00:27:18.850Z,22.57
2022-08-21T00:29:46.875Z,22.48
2022-08-21T00:32:14.909Z,22.42
2022-08-21T00:37:10.834Z,22.30
2022-08-21T00:39:40.065Z,22.27
2022-08-21T00:42:09.509Z,22.25
2022-08-21T00:44:37.542Z,22.24
2022-08-21T00:47:05.880Z,22.22
2022-08-21T00:49:33.885Z,22.19
2022-08-21T00:52:02.303Z,22.13
2022-08-21T00:54:31.258Z,22.09
2022-08-21T00:57:01.239Z,22.03
2022-08-21T00:59:33.442Z,22.00
2022-08-21T01:02:01.646Z,21.97
2022-08-21T01:04:29.691Z,21.94
2022-08-21T01:06:57.708Z,21.92
2022-08-21T01:09:25.736Z,21.91
2022-08-21T01:11:53.816Z,21.91
2022-08-21T01:14:21.842Z,21.89
2022-08-21T01:16:54.045Z,21.83
2022-08-21T01:19:22.518Z,21.86
2022-08-21T01:21:52.082Z,21.83
2022-08-21T01:24:20.344Z,21.83
2022-08-21T01:26:48.345Z,21.85
2022-08-21T01:29:18.859Z,21.87
2022-08-21T01:31:46.988Z,21.90
2022-08-21T01:34:16.633Z,21.90
2022-08-21T01:36:44.788Z,21.93
2022-08-21T01:39:15.472Z,21.98
2022-08-21T01:41:43.569Z,22.04
2022-08-21T01:44:11.632Z,22.08
2022-08-21T01:46:39.706Z,22.13
2022-08-21T01:49:07.801Z,22.17
2022-08-21T01:51:35.833Z,22.20
2022-08-21T01:54:03.905Z,22.22
2022-08-21T01:56:37.561Z,22.25
2022-08-21T01:59:05.627Z,22.30
2022-08-21T02:01:33.869Z,22.34
2022-08-21T02:04:01.871Z,22.38
2022-08-21T02:06:29.948Z,22.40
2022-08-21T02:08:57.959Z,22.44
2022-08-21T02:11:26.015Z,22.45
2022-08-21T02:13:55.510Z,22.45
2022-08-21T02:16:23.564Z,22.47
2022-08-21T02:18:51.597Z,22.49
2022-08-21T02:21:20.123Z,22.51
2022-08-21T02:23:48.319Z,22.51
2022-08-21T02:26:16.658Z,22.50
2022-08-21T02:28:44.679Z,22.49
2022-08-21T02:31:14.217Z,22.46
2022-08-21T02:33:42.414Z,22.46
2022-08-21T02:36:10.840Z,22.50
2022-08-21T02:38:39.868Z,22.48
2022-08-21T02:41:08.610Z,22.49
2022-08-21T02:43:36.650Z,22.48
2022-08-21T02:46:07.581Z,22.47
2022-08-21T02:48:37.489Z,22.46
2022-08-21T02:51:07.071Z,22.45
2022-08-21T02:53:35.207Z,22.46
2022-08-21T02:56:04.267Z,22.49
2022-08-21T02:58:34.344Z,22.51
2022-08-21T03:01:02.998Z,22.51
2022-08-21T03:03:31.496Z,22.52
2022-08-21T03:06:00.900Z,22.51
2022-08-21T03:08:28.921Z,22.50
2022-08-21T03:10:56.947Z,22.50
2022-08-21T03:13:25.069Z,22.50
2022-08-21T03:15:53.181Z,22.47
2022-08-21T03:18:21.236Z,22.43
2022-08-21T03:20:49.307Z,22.42
2022-08-21T03:23:19.623Z,22.38
2022-08-21T03:25:47.955Z,22.37
2022-08-21T03:28:17.045Z,22.36
2022-08-21T03:30:46.036Z,22.34
2022-08-21T03:33:15.558Z,22.31
2022-08-21T03:35:43.929Z,22.29
2022-08-21T03:38:13.733Z,22.28
2022-08-21T03:40:43.324Z,22.27
2022-08-21T03:43:11.417Z,22.27
2022-08-21T03:45:39.503Z,22.27
2022-08-21T03:48:07.795Z,22.27
2022-08-21T03:50:41.061Z,22.24
2022-08-21T03:53:17.037Z,22.22
2022-08-21T03:55:47.622Z,22.19
2022-08-21T03:58:17.520Z,22.12
2022-08-21T04:00:46.281Z,22.07
2022-08-21T04:03:14.300Z,22.09
2022-08-21T04:05:42.578Z,22.10
2022-08-21T04:08:10.635Z,22.14
2022-08-21T04:10:39.273Z,22.09
2022-08-21T04:13:09.032Z,22.12
2022-08-21T04:15:37.469Z,22.16
2022-08-21T04:18:05.727Z,22.17
2022-08-21T04:20:34.104Z,22.18
2022-08-21T04:23:02.311Z,22.19
2022-08-21T04:25:30.468Z,22.17
2022-08-21T04:27:59.000Z,22.17
2022-08-21T04:30:29.027Z,22.15
2022-08-21T04:32:58.084Z,22.14
2022-08-21T04:35:27.246Z,22.14
2022-08-21T04:37:55.384Z,22.14
2022-08-21T04:40:25.151Z,22.11
2022-08-21T04:42:54.120Z,22.05
2022-08-21T04:45:23.849Z,22.00
2022-08-21T04:47:53.614Z,21.96
2022-08-21T04:50:21.695Z,21.97
2022-08-21T04:53:05.045Z,21.99
2022-08-21T04:55:33.394Z,22.02
2022-08-21T04:58:01.461Z,22.05
2022-08-21T05:00:29.653Z,22.06
2022-08-21T05:03:00.404Z,22.07
2022-08-21T05:05:29.986Z,22.06
2022-08-21T05:07:58.757Z,22.04
2022-08-21T05:10:26.785Z,22.03
2022-08-21T05:12:54.984Z,22.03
2022-08-21T05:15:23.123Z,22.00
2022-08-21T05:17:53.766Z,21.89
2022-08-21T05:20:31.094Z,21.75
2022-08-21T05:22:59.646Z,21.69
2022-08-21T05:25:28.131Z,21.63
2022-08-21T05:27:58.112Z,21.59
2022-08-21T05:30:28.714Z,21.60
2022-08-21T05:32:58.785Z,21.56
2022-08-21T05:35:27.163Z,21.54
2022-08-21T05:37:56.570Z,21.49
2022-08-21T05:40:24.930Z,21.45
2022-08-21T05:42:54.297Z,21.42
2022-08-21T05:45:41.612Z,21.37
2022-08-21T05:48:12.375Z,21.39
2022-08-21T05:50:40.528Z,21.48
2022-08-21T05:53:10.669Z,21.59
2022-08-21T05:55:44.223Z,21.70
2022-08-21T05:58:13.705Z,21.82
2022-08-21T06:00:41.994Z,21.89
2022-08-21T06:03:13.415Z,21.92
2022-08-21T06:05:41.440Z,21.96
2022-08-21T06:08:10.964Z,21.99
2022-08-21T06:10:39.104Z,22.05
2022-08-21T06:13:07.115Z,22.09
2022-08-21T06:15:35.173Z,22.11
2022-08-21T06:18:03.202Z,22.12
2022-08-21T06:20:31.817Z,22.13
2022-08-21T06:23:00.053Z,22.16
2022-08-21T06:25:30.036Z,22.18
2022-08-21T06:28:02.961Z,22.17
2022-08-21T06:30:31.048Z,22.19
2022-08-21T06:32:59.294Z,22.23
2022-08-21T06:35:29.814Z,22.25
2022-08-21T06:37:57.950Z,22.29
2022-08-21T06:40:26.183Z,22.32
2022-08-21T06:42:55.731Z,22.36
2022-08-21T06:45:24.045Z,22.40
2022-08-21T06:47:52.036Z,22.41
2022-08-21T06:50:20.626Z,22.43
2022-08-21T06:52:48.648Z,22.43
2022-08-21T06:55:21.243Z,22.46
2022-08-21T06:57:52.422Z,22.49
2022-08-21T07:00:22.623Z,22.55
2022-08-21T07:02:50.612Z,22.60
2022-08-21T07:05:18.879Z,22.61
2022-08-21T07:07:46.972Z,22.63
2022-08-21T07:10:22.333Z,22.66
2022-08-21T07:12:52.556Z,22.75
2022-08-21T07:15:30.255Z,22.81
2022-08-21T07:17:59.227Z,22.86
2022-08-21T07:20:27.612Z,22.93
2022-08-21T07:22:55.673Z,22.98
2022-08-21T07:25:24.023Z,23.02
2022-08-21T07:27:52.093Z,23.04
2022-08-21T07:30:20.361Z,23.09
2022-08-21T07:32:51.309Z,23.11
2022-08-21T07:35:19.544Z,23.12
2022-08-21T07:37:47.964Z,23.11
2022-08-21T07:40:16.408Z,23.06
2022-08-21T07:42:44.891Z,23.03
2022-08-21T07:45:13.173Z,23.05
2022-08-21T07:47:42.112Z,23.08
2022-08-21T07:50:12.853Z,23.04
2022-08-21T07:52:40.998Z,23.10
2022-08-21T07:55:10.048Z,23.17
2022-08-21T07:57:38.201Z,23.25
2022-08-21T08:00:07.776Z,23.33
2022-08-21T08:02:40.099Z,23.42
2022-08-21T08:05:10.121Z,23.45
2022-08-21T08:07:39.598Z,23.43
2022-08-21T08:10:08.896Z,23.37
2022-08-21T08:12:37.069Z,23.38
2022-08-21T08:15:05.788Z,23.51
2022-08-21T08:17:34.288Z,23.74
2022-08-21T08:20:03.413Z,23.97
2022-08-21T08:22:31.600Z,24.06
2022-08-21T08:25:01.493Z,24.11
2022-08-21T08:27:29.530Z,24.13
2022-08-21T08:29:57.527Z,24.14
2022-08-21T08:32:25.664Z,24.17
2022-08-21T08:34:53.776Z,24.18
2022-08-21T08:37:24.057Z,24.18
2022-08-21T08:39:56.956Z,24.21
2022-08-21T08:42:33.778Z,24.21
2022-08-21T08:45:04.339Z,24.21
2022-08-21T08:47:32.864Z,24.33
2022-08-21T08:50:04.490Z,24.40
2022-08-21T08:52:33.373Z,24.39
2022-08-21T08:55:04.269Z,24.41
2022-08-21T08:57:33.707Z,24.48
2022-08-21T09:00:03.096Z,24.56
2022-08-21T09:02:31.325Z,24.60
2022-08-21T09:04:59.991Z,24.71
2022-08-21T09:07:33.756Z,24.74
2022-08-21T09:10:08.610Z,24.71
2022-08-21T09:12:42.200Z,24.69
2022-08-21T09:15:15.420Z,24.75
2022-08-21T09:17:55.212Z,24.90
2022-08-21T09:20:26.252Z,24.98
2022-08-21T09:23:04.016Z,25.05
2022-08-21T09:25:34.591Z,24.92
2022-08-21T09:28:04.226Z,24.91
2022-08-21T09:30:33.556Z,24.92
2022-08-21T09:33:01.843Z,24.89
2022-08-21T09:35:30.060Z,24.91
2022-08-21T09:38:00.237Z,24.77
2022-08-21T09:40:32.491Z,24.69
2022-08-21T09:43:02.546Z,24.66
2022-08-21T09:45:34.209Z,24.66
2022-08-21T09:48:13.810Z,24.65
2022-08-21T09:50:42.656Z,24.63
2022-08-21T09:53:18.493Z,24.61
2022-08-21T09:56:08.097Z,24.57
2022-08-21T09:58:37.054Z,24.50
2022-08-21T10:01:07.771Z,24.50
2022-08-21T10:03:35.878Z,24.45
2022-08-21T10:06:09.554Z,24.43
2022-08-21T10:08:38.880Z,24.38
2022-08-21T10:11:07.956Z,24.26
2022-08-21T10:13:43.797Z,24.26
2022-08-21T10:16:33.504Z,24.21
2022-08-21T10:19:07.619Z,24.20
2022-08-21T10:21:38.201Z,24.29
2022-08-21T10:24:09.589Z,24.43
2022-08-21T10:26:45.057Z,24.48
2022-08-21T10:29:24.668Z,24.59
2022-08-21T10:31:58.938Z,24.70
2022-08-21T10:34:33.889Z,24.74
2022-08-21T10:37:10.860Z,24.78
2022-08-21T10:39:42.343Z,25.00
2022-08-21T10:42:34.106Z,25.18
2022-08-21T10:45:25.918Z,25.20
2022-08-21T10:47:58.181Z,25.16
2022-08-21T10:50:32.521Z,25.17
2022-08-21T10:53:31.899Z,25.13
2022-08-21T10:56:17.414Z,25.09
2022-08-21T10:59:12.556Z,24.98
2022-08-21T11:01:55.086Z,24.95
2022-08-21T11:04:38.886Z,25.20
2022-08-21T11:07:21.915Z,25.33
2022-08-21T11:09:50.827Z,25.46
2022-08-21T11:12:23.064Z,25.59
2022-08-21T11:14:56.585Z,25.81
2022-08-21T11:17:30.986Z,26.04
2022-08-21T11:20:06.849Z,26.25
2022-08-21T11:22:40.137Z,26.44
2022-08-21T11:25:11.702Z,26.51
2022-08-21T11:27:42.546Z,26.49
2022-08-21T11:30:11.275Z,26.44
2022-08-21T11:33:00.220Z,26.58
2022-08-21T11:35:34.957Z,26.70
2022-08-21T11:38:14.409Z,26.64
2022-08-21T11:40:51.627Z,26.70
2022-08-21T11:43:22.641Z,26.72
2022-08-21T11:45:52.047Z,26.64
2022-08-21T11:48:30.850Z,26.59
2022-08-21T11:51:00.496Z,26.52
2022-08-21T11:53:31.750Z,26.47
2022-08-21T11:56:02.379Z,26.49
2022-08-21T11:58:33.728Z,26.47
2022-08-21T12:01:03.090Z,26.38
2022-08-21T12:03:33.138Z,26.34
2022-08-21T12:06:04.631Z,26.34
2022-08-21T12:08:34.680Z,26.44
2022-08-21T12:11:05.474Z,26.58
2022-08-21T12:13:40.417Z,26.83
2022-08-21T12:16:12.179Z,27.15
2022-08-21T12:18:41.148Z,27.44
2022-08-21T12:21:27.057Z,27.72
2022-08-21T12:24:07.359Z,27.78
2022-08-21T12:26:36.889Z,27.81
2022-08-21T12:29:18.855Z,27.96
2022-08-21T12:31:56.019Z,27.98
2022-08-21T12:34:25.604Z,27.91
2022-08-21T12:36:59.935Z,27.76
2022-08-21T12:39:29.872Z,27.77
2022-08-21T12:42:02.026Z,27.69
2022-08-21T12:44:34.580Z,27.46
2022-08-21T12:47:05.042Z,27.39
2022-08-21T12:49:35.817Z,27.38
2022-08-21T12:52:11.229Z,27.39
2022-08-21T12:54:41.575Z,27.62
2022-08-21T12:57:10.006Z,27.96
2022-08-21T12:59:39.616Z,28.07
2022-08-21T13:02:15.887Z,28.15
2022-08-21T13:04:44.069Z,28.43
2022-08-21T13:07:15.273Z,28.62
2022-08-21T13:09:50.551Z,29.00
2022-08-21T13:12:18.758Z,28.87
2022-08-21T13:14:48.410Z,28.60
2022-08-21T13:17:25.454Z,28.29
2022-08-21T13:20:01.108Z,27.98
2022-08-21T13:22:33.923Z,27.65
2022-08-21T13:25:06.954Z,27.36
2022-08-21T13:27:35.614Z,27.08
2022-08-21T13:30:12.356Z,26.88
2022-08-21T13:32:42.816Z,26.78
2022-08-21T13:35:17.214Z,26.73
2022-08-21T13:37:47.582Z,26.72
2022-08-21T13:40:17.731Z,26.65
2022-08-21T13:42:47.173Z,26.57
2022-08-21T13:45:24.995Z,26.46
2022-08-21T13:47:54.014Z,26.32
2022-08-21T13:50:23.808Z,26.27
2022-08-21T13:52:58.016Z,26.23
2022-08-21T13:55:29.244Z,26.17
2022-08-21T13:58:05.988Z,26.09
2022-08-21T14:00:36.327Z,26.07
2022-08-21T14:03:07.417Z,26.03
2022-08-21T14:05:36.482Z,25.94
2022-08-21T14:08:08.963Z,25.86
2022-08-21T14:10:42.095Z,25.77
2022-08-21T14:13:10.219Z,25.65
2022-08-21T14:15:40.058Z,25.50
2022-08-21T14:18:31.232Z,25.37
2022-08-21T14:21:08.774Z,25.21
2022-08-21T14:23:39.286Z,25.05
2022-08-21T14:26:08.156Z,24.95
2022-08-21T14:28:37.256Z,24.84
2022-08-21T14:31:14.415Z,24.71
2022-08-21T14:33:43.918Z,24.65
2022-08-21T14:36:12.238Z,24.58
2022-08-21T14:38:42.310Z,24.59
2022-08-21T14:41:17.820Z,24.50
2022-08-21T14:43:46.056Z,24.49
2022-08-21T14:46:14.799Z,24.46
2022-08-21T14:48:43.849Z,24.47
2022-08-21T14:51:12.189Z,24.47
2022-08-21T14:53:41.781Z,24.46
2022-08-21T14:56:10.049Z,24.47
2022-08-21T14:58:42.460Z,24.48
2022-08-21T15:01:12.261Z,24.55
2022-08-21T15:03:40.469Z,24.59
2022-08-21T15:06:09.066Z,24.57
2022-08-21T15:08:37.293Z,24.55
2022-08-21T15:11:18.625Z,24.51
2022-08-21T15:13:57.224Z,24.57
2022-08-21T15:16:26.207Z,24.62
2022-08-21T15:18:54.299Z,24.60
2022-08-21T15:21:22.501Z,24.57
2022-08-21T15:23:50.645Z,24.58
2022-08-21T15:26:20.343Z,24.62
2022-08-21T15:28:48.516Z,24.71
2022-08-21T15:31:16.562Z,24.79
2022-08-21T15:33:44.738Z,24.88
2022-08-21T15:36:12.824Z,24.87
2022-08-21T15:38:40.904Z,24.81
2022-08-21T15:41:09.009Z,24.81
2022-08-21T15:43:41.637Z,24.99
2022-08-21T15:46:09.766Z,25.17
2022-08-21T15:48:37.883Z,25.36
2022-08-21T15:51:06.116Z,25.55
2022-08-21T15:53:37.722Z,25.71
2022-08-21T15:56:05.962Z,25.81
2022-08-21T15:58:34.053Z,25.91
2022-08-21T16:01:03.748Z,25.98
2022-08-21T16:03:31.888Z,25.98
2022-08-21T16:05:59.936Z,26.01
2022-08-21T16:08:27.988Z,26.07
2022-08-21T16:10:56.213Z,26.04
2022-08-21T16:13:27.177Z,26.04
2022-08-21T16:15:55.754Z,26.11
2022-08-21T16:18:26.626Z,26.08
2022-08-21T16:20:54.676Z,26.16
2022-08-21T16:23:22.858Z,26.31
2022-08-21T16:25:50.920Z,26.40
2022-08-21T16:28:20.876Z,26.48
2022-08-21T16:30:52.851Z,26.58
2022-08-21T16:33:24.953Z,26.67
2022-08-21T16:35:54.464Z,26.71
2022-08-21T16:38:22.579Z,26.68
2022-08-21T16:40:50.596Z,26.63
2022-08-21T16:43:18.688Z,26.59
2022-08-21T16:45:46.709Z,26.55
2022-08-21T16:48:14.762Z,26.54
2022-08-21T16:50:42.808Z,26.53
2022-08-21T16:53:12.275Z,26.48
2022-08-21T16:55:40.574Z,26.44
2022-08-21T16:58:11.425Z,26.40
2022-08-21T17:00:39.445Z,26.39
2022-08-21T17:03:07.589Z,26.33
2022-08-21T17:05:35.630Z,26.28
2022-08-21T17:08:04.307Z,26.24
2022-08-21T17:10:33.791Z,26.23
2022-08-21T17:13:07.585Z,26.20
2022-08-21T17:15:38.686Z,26.19
2022-08-21T17:18:07.629Z,26.15
2022-08-21T17:20:35.752Z,26.13
2022-08-21T17:23:03.818Z,26.09
2022-08-21T17:25:33.296Z,26.05
2022-08-21T17:28:01.444Z,26.01
2022-08-21T17:30:29.477Z,25.94
2022-08-21T17:32:57.644Z,25.91
2022-08-21T17:35:28.286Z,25.91
2022-08-21T17:37:57.046Z,25.93
2022-08-21T17:40:28.059Z,25.91
2022-08-21T17:42:57.615Z,25.89
2022-08-21T17:45:27.146Z,25.80
2022-08-21T17:47:55.168Z,25.74
2022-08-21T17:50:25.020Z,25.65
2022-08-21T17:52:53.073Z,25.53
2022-08-21T17:55:21.500Z,25.36
2022-08-21T17:57:50.377Z,25.17
2022-08-21T18:00:20.119Z,25.08
2022-08-21T18:02:51.201Z,25.04
2022-08-21T18:05:20.249Z,25.05
2022-08-21T18:07:48.400Z,25.08
2022-08-21T18:10:16.676Z,25.09
2022-08-21T18:12:45.356Z,25.06
2022-08-21T18:15:14.031Z,25.02
2022-08-21T18:17:45.295Z,24.94
2022-08-21T18:20:15.364Z,24.82
2022-08-21T18:22:43.549Z,24.71
2022-08-21T18:25:12.065Z,24.68
2022-08-21T18:27:42.628Z,24.61
2022-08-21T18:30:11.914Z,24.59
2022-08-21T18:32:39.945Z,24.59
2022-08-21T18:35:09.893Z,24.56
2022-08-21T18:37:39.812Z,24.57
2022-08-21T18:40:09.571Z,24.56
2022-08-21T18:42:39.161Z,24.56
2022-08-21T18:45:08.841Z,24.60
2022-08-21T18:47:38.936Z,24.65
2022-08-21T18:50:11.018Z,24.71
2022-08-21T18:52:43.386Z,24.75
2022-08-21T18:55:21.478Z,24.73
2022-08-21T18:57:49.566Z,24.67
2022-08-21T19:00:19.448Z,24.59
2022-08-21T19:02:47.798Z,24.56
2022-08-21T19:05:18.180Z,24.49
2022-08-21T19:07:46.824Z,24.48
2022-08-21T19:10:31.135Z,24.44
2022-08-21T19:12:59.625Z,24.41
2022-08-21T19:15:28.564Z,24.41
2022-08-21T19:17:58.432Z,24.39
2022-08-21T19:20:31.288Z,24.38
2022-08-21T19:22:59.370Z,24.42
2022-08-21T19:28:19.546Z,24.30
2022-08-21T19:30:55.014Z,24.27
2022-08-21T19:33:24.762Z,24.23
2022-08-21T19:35:54.267Z,24.19
2022-08-21T19:38:22.365Z,24.17
2022-08-21T19:40:50.508Z,24.12
2022-08-21T19:43:23.375Z,24.04
2022-08-21T19:45:51.829Z,24.00
2022-08-21T19:48:20.214Z,24.01
2022-08-21T19:50:48.436Z,24.05
2022-08-21T19:53:17.965Z,24.10
2022-08-21T19:55:48.230Z,24.14
2022-08-21T19:58:24.916Z,24.11
2022-08-21T20:00:53.022Z,24.15
2022-08-21T20:03:21.311Z,24.18
2022-08-21T20:05:49.543Z,24.20
2022-08-21T20:08:20.586Z,24.18
2022-08-21T20:10:49.959Z,24.13
2022-08-21T20:13:21.510Z,24.11
2022-08-21T20:15:50.398Z,24.12
2022-08-21T20:18:18.559Z,24.12
2022-08-21T20:20:46.763Z,24.10
2022-08-21T20:23:15.976Z,24.08
2022-08-21T20:25:47.028Z,24.08
2022-08-21T20:28:15.272Z,24.14
2022-08-21T20:30:46.794Z,24.16
2022-08-21T20:33:16.455Z,24.17
2022-08-21T20:35:48.410Z,24.20
2022-08-21T20:38:16.484Z,24.22
2022-08-21T20:40:44.778Z,24.23
2022-08-21T20:43:14.289Z,24.25
2022-08-21T20:45:42.449Z,24.27
2022-08-21T20:48:12.291Z,24.29
2022-08-21T20:50:42.003Z,24.33
2022-08-21T20:53:24.633Z,24.32
2022-08-21T20:55:52.700Z,24.30
2022-08-21T20:58:29.710Z,24.29
2022-08-21T21:00:57.942Z,24.33
2022-08-21T21:03:32.583Z,24.30
2022-08-21T21:06:02.577Z,24.32
2022-08-21T21:08:32.349Z,24.32
2022-08-21T21:11:01.448Z,24.27
2022-08-21T21:13:32.251Z,24.25
2022-08-21T21:16:03.491Z,24.25
2022-08-21T21:18:33.640Z,24.21
2022-08-21T21:21:05.608Z,24.17
2022-08-21T21:23:36.953Z,24.14
2022-08-21T21:26:09.715Z,24.08
2022-08-21T21:28:48.149Z,24.02
2022-08-21T21:31:17.299Z,23.99
2022-08-21T21:33:46.334Z,23.95
2022-08-21T21:36:20.603Z,23.91
2022-08-21T21:38:52.835Z,23.90
2022-08-21T21:41:25.062Z,23.85
2022-08-21T21:44:06.324Z,23.84
2022-08-21T21:46:37.353Z,23.80
2022-08-21T21:49:20.789Z,23.79
2022-08-21T21:52:00.322Z,23.70
2022-08-21T21:54:52.364Z,23.65
2022-08-21T21:57:28.514Z,23.61
2022-08-21T22:00:00.171Z,23.57
2022-08-21T22:02:39.720Z,23.56
2022-08-21T22:05:11.671Z,23.51
2022-08-21T22:07:43.572Z,23.47
2022-08-21T22:10:19.713Z,23.43
2022-08-21T22:13:09.875Z,23.40
2022-08-21T22:15:41.390Z,23.38
2022-08-21T22:18:11.260Z,23.30
2022-08-21T22:20:41.874Z,23.22
2022-08-21T22:23:15.960Z,23.16
2022-08-21T22:25:45.972Z,23.12
2022-08-21T22:28:18.224Z,23.05
2022-08-21T22:30:56.328Z,22.96
2022-08-21T22:33:25.933Z,22.90
2022-08-21T22:35:58.788Z,22.83
2022-08-21T22:38:33.316Z,22.72
2022-08-21T22:41:17.305Z,22.64
2022-08-21T22:43:55.810Z,22.56
2022-08-21T22:46:46.248Z,22.56
2022-08-21T22:49:22.616Z,22.49
2022-08-21T22:51:56.589Z,22.45
2022-08-21T22:54:31.589Z,22.42
2022-08-21T22:57:00.792Z,22.43
2022-08-21T22:59:29.839Z,22.43
2022-08-21T23:02:03.502Z,22.39
2022-08-21T23:04:33.763Z,22.33
2022-08-21T23:07:06.067Z,22.27
2022-08-21T23:09:35.991Z,22.24
2022-08-21T23:12:21.480Z,22.27
2022-08-21T23:14:54.872Z,22.26
2022-08-21T23:17:30.676Z,22.27
2022-08-21T23:20:04.312Z,22.27
2022-08-21T23:22:37.353Z,22.27
2022-08-21T23:25:18.440Z,22.27
2022-08-21T23:27:57.184Z,22.25
2022-08-21T23:30:31.504Z,22.20
2022-08-21T23:33:30.169Z,22.22
2022-08-21T23:36:21.897Z,22.19
2022-08-21T23:39:01.103Z,22.16
2022-08-21T23:41:34.400Z,22.13
2022-08-21T23:44:10.753Z,22.14
2022-08-21T23:46:51.228Z,22.14
2022-08-21T23:49:30.584Z,22.15
2022-08-21T23:52:04.925Z,22.14
2022-08-21T23:54:37.077Z,22.16
2022-08-21T23:57:10.622Z,22.17
2022-08-21T23:59:44.729Z,22.18
